createdAt,value
2018-05-09T00:00:06.979Z,16.58
2018-05-09T00:01:07.494Z,16.54
2018-05-09T00:02:07.444Z,16.54
2018-05-09T00:03:07.177Z,16.5
2018-05-09T00:04:07.443Z,16.53
2018-05-09T00:05:07.182Z,16.51
2018-05-09T00:06:07.181Z,16.51
2018-05-09T00:07:07.465Z,16.47
2018-05-09T00:08:07.175Z,16.46
2018-05-09T00:09:06.931Z,16.39
2018-05-09T00:10:07.204Z,16.42
2018-05-09T00:11:07.177Z,16.39
2018-05-09T00:12:07.276Z,16.38
2018-05-09T00:13:07.191Z,16.41
2018-05-09T00:14:07.189Z,16.33
2018-05-09T00:15:07.448Z,16.32
2018-05-09T00:16:07.192Z,16.35
2018-05-09T00:17:07.451Z,16.33
2018-05-09T00:18:07.173Z,16.31
2018-05-09T00:19:06.933Z,16.33
2018-05-09T00:20:06.923Z,16.35
2018-05-09T00:21:07.234Z,16.33
2018-05-09T00:22:07.176Z,16.26
2018-05-09T00:23:07.165Z,16.29
2018-05-09T00:24:07.513Z,16.28
2018-05-09T00:25:07.530Z,16.28
2018-05-09T00:26:07.454Z,16.35
2018-05-09T00:27:07.180Z,16.17
2018-05-09T00:28:07.184Z,16.16
2018-05-09T00:29:07.452Z,16.15
2018-05-09T00:30:06.920Z,16.2
2018-05-09T00:31:07.244Z,16.15
2018-05-09T00:32:06.926Z,16.13
2018-05-09T00:33:07.178Z,16.17
2018-05-09T00:34:07.448Z,16.08
2018-05-09T00:35:07.459Z,16.13
2018-05-09T00:36:07.439Z,16.13
2018-05-09T00:37:07.179Z,16.01
2018-05-09T00:38:07.179Z,16.05
2018-05-09T00:39:06.913Z,16.04
2018-05-09T00:40:07.202Z,16.08
2018-05-09T00:41:07.195Z,16.01
2018-05-09T00:42:07.435Z,16
2018-05-09T00:43:07.435Z,16.01
2018-05-09T00:44:06.924Z,15.98
2018-05-09T00:45:07.173Z,15.98
2018-05-09T00:46:07.189Z,16
2018-05-09T00:47:07.195Z,15.94
2018-05-09T00:48:07.438Z,15.88
2018-05-09T00:49:07.464Z,15.91
2018-05-09T00:50:06.969Z,15.88
2018-05-09T00:51:07.209Z,15.92
2018-05-09T00:52:07.466Z,15.83
2018-05-09T00:53:07.182Z,15.86
2018-05-09T00:54:07.428Z,15.83
2018-05-09T00:55:07.197Z,15.83
2018-05-09T00:56:07.439Z,15.88
2018-05-09T00:57:07.453Z,15.88
2018-05-09T00:58:06.921Z,15.84
2018-05-09T00:59:06.910Z,15.86
2018-05-09T01:00:07.198Z,15.83
2018-05-09T01:01:06.912Z,15.82
2018-05-09T01:02:07.433Z,15.84
2018-05-09T01:03:07.455Z,15.84
2018-05-09T01:04:07.221Z,15.84
2018-05-09T01:05:07.165Z,15.86
2018-05-09T01:06:07.456Z,15.86
2018-05-09T01:07:06.915Z,15.83
2018-05-09T01:08:07.168Z,15.82
2018-05-09T01:09:07.436Z,15.83
2018-05-09T01:10:07.434Z,15.83
2018-05-09T01:11:06.913Z,15.77
2018-05-09T01:12:06.913Z,15.8
2018-05-09T01:13:07.190Z,15.84
2018-05-09T01:14:07.188Z,15.88
2018-05-09T01:15:13.788Z,15.84
2018-05-09T01:16:07.757Z,15.91
2018-05-09T01:17:06.887Z,15.83
2018-05-09T01:18:07.400Z,15.82
2018-05-09T01:19:07.140Z,15.91
2018-05-09T01:20:07.404Z,15.72
2018-05-09T01:21:07.136Z,15.73
2018-05-09T01:22:07.150Z,15.73
2018-05-09T01:23:07.402Z,15.65
2018-05-09T01:24:07.150Z,15.62
2018-05-09T01:25:07.428Z,15.58
2018-05-09T01:26:07.135Z,15.65
2018-05-09T01:27:07.146Z,15.62
2018-05-09T01:28:07.147Z,15.68
2018-05-09T01:29:07.407Z,15.62
2018-05-09T01:30:07.177Z,15.54
2018-05-09T01:31:07.137Z,15.61
2018-05-09T01:32:06.881Z,15.57
2018-05-09T01:33:07.393Z,15.54
2018-05-09T01:34:07.401Z,15.4
2018-05-09T01:35:07.407Z,15.44
2018-05-09T01:36:07.400Z,15.44
2018-05-09T01:37:06.881Z,15.44
2018-05-09T01:38:07.404Z,15.52
2018-05-09T01:39:07.129Z,15.44
2018-05-09T01:40:06.885Z,15.43
2018-05-09T01:41:07.129Z,15.39
2018-05-09T01:42:07.397Z,15.37
2018-05-09T01:43:07.140Z,15.43
2018-05-09T01:44:07.142Z,15.37
2018-05-09T01:45:07.157Z,15.42
2018-05-09T01:46:07.132Z,15.43
2018-05-09T01:47:07.382Z,15.37
2018-05-09T01:48:07.214Z,15.39
2018-05-09T01:49:07.134Z,15.4
2018-05-09T01:50:06.868Z,15.27
2018-05-09T01:51:07.118Z,15.25
2018-05-09T01:52:07.145Z,15.22
2018-05-09T01:53:07.402Z,15.11
2018-05-09T01:54:07.126Z,15.17
2018-05-09T01:55:07.199Z,15.04
2018-05-09T01:56:07.127Z,15.14
2018-05-09T01:57:07.405Z,15.07
2018-05-09T01:58:07.395Z,15.15
2018-05-09T01:59:07.391Z,15.15
2018-05-09T02:00:07.392Z,15.04
2018-05-09T02:01:06.873Z,15.02
2018-05-09T02:02:07.394Z,15.03
2018-05-09T02:03:07.127Z,15.07
2018-05-09T02:04:07.375Z,14.99
2018-05-09T02:05:07.383Z,15.14
2018-05-09T02:06:07.544Z,15.03
2018-05-09T02:07:07.114Z,14.94
2018-05-09T02:08:06.868Z,15.18
2018-05-09T02:09:06.871Z,15.04
2018-05-09T02:10:07.367Z,14.92
2018-05-09T02:11:07.361Z,15.03
2018-05-09T02:12:06.853Z,14.99
2018-05-09T02:13:07.371Z,15
2018-05-09T02:14:07.124Z,15
2018-05-09T02:15:07.114Z,14.99
2018-05-09T02:16:07.120Z,14.96
2018-05-09T02:17:07.375Z,14.86
2018-05-09T02:18:07.102Z,14.85
2018-05-09T02:19:07.120Z,14.88
2018-05-09T02:20:06.858Z,14.81
2018-05-09T02:21:07.382Z,14.78
2018-05-09T02:22:06.851Z,14.85
2018-05-09T02:23:06.845Z,14.79
2018-05-09T02:24:07.234Z,14.7
2018-05-09T02:25:07.104Z,14.7
2018-05-09T02:26:07.367Z,14.65
2018-05-09T02:27:07.105Z,14.69
2018-05-09T02:28:07.363Z,14.66
2018-05-09T02:29:07.392Z,14.63
2018-05-09T02:30:07.114Z,14.7
2018-05-09T02:31:07.588Z,14.65
2018-05-09T02:32:07.115Z,14.69
2018-05-09T02:33:07.092Z,14.68
2018-05-09T02:34:06.847Z,14.78
2018-05-09T02:35:07.362Z,14.72
2018-05-09T02:36:07.175Z,14.81
2018-05-09T02:37:07.090Z,14.79
2018-05-09T02:38:07.369Z,14.81
2018-05-09T02:39:07.096Z,14.84
2018-05-09T02:40:07.111Z,14.84
2018-05-09T02:41:07.372Z,14.86
2018-05-09T02:42:07.362Z,14.78
2018-05-09T02:43:07.085Z,14.78
2018-05-09T02:44:07.441Z,14.62
2018-05-09T02:45:07.096Z,14.66
2018-05-09T02:46:07.094Z,14.63
2018-05-09T02:47:07.096Z,14.6
2018-05-09T02:48:07.350Z,14.63
2018-05-09T02:49:07.428Z,14.6
2018-05-09T02:50:07.082Z,14.51
2018-05-09T02:51:07.092Z,14.63
2018-05-09T02:52:06.824Z,14.51
2018-05-09T02:53:07.083Z,14.51
2018-05-09T02:54:07.360Z,14.5
2018-05-09T02:55:07.338Z,14.47
2018-05-09T02:56:07.333Z,14.51
2018-05-09T02:57:07.326Z,14.43
2018-05-09T02:58:07.074Z,14.47
2018-05-09T02:59:06.820Z,14.43
2018-05-09T03:00:07.085Z,14.47
2018-05-09T03:01:07.442Z,14.54
2018-05-09T03:02:07.339Z,14.5
2018-05-09T03:03:07.330Z,14.47
2018-05-09T03:04:06.811Z,14.53
2018-05-09T03:05:07.087Z,14.48
2018-05-09T03:06:07.336Z,14.41
2018-05-09T03:07:07.331Z,14.5
2018-05-09T03:08:07.084Z,14.47
2018-05-09T03:09:07.324Z,14.45
2018-05-09T03:10:07.339Z,14.44
2018-05-09T03:11:07.071Z,14.35
2018-05-09T03:12:07.343Z,14.4
2018-05-09T03:13:07.320Z,14.41
2018-05-09T03:14:07.320Z,14.44
2018-05-09T03:15:07.054Z,14.44
2018-05-09T03:16:06.816Z,14.35
2018-05-09T03:17:07.050Z,14.35
2018-05-09T03:18:06.809Z,14.36
2018-05-09T03:19:07.052Z,14.37
2018-05-09T03:20:07.051Z,14.35
2018-05-09T03:21:07.052Z,14.4
2018-05-09T03:22:06.783Z,14.33
2018-05-09T03:23:07.047Z,14.26
2018-05-09T03:24:07.306Z,14.36
2018-05-09T03:25:07.050Z,14.32
2018-05-09T03:26:07.043Z,14.26
2018-05-09T03:27:06.780Z,14.29
2018-05-09T03:28:06.777Z,14.29
2018-05-09T03:29:07.027Z,14.25
2018-05-09T03:30:06.852Z,14.2
2018-05-09T03:31:07.032Z,14.15
2018-05-09T03:32:07.284Z,14.18
2018-05-09T03:33:07.030Z,14.2
2018-05-09T03:34:07.046Z,14.22
2018-05-09T03:35:06.767Z,14.07
2018-05-09T03:36:06.783Z,14.17
2018-05-09T03:37:07.267Z,14.22
2018-05-09T03:38:07.278Z,14.2
2018-05-09T03:39:07.019Z,14.17
2018-05-09T03:40:07.018Z,14.22
2018-05-09T03:41:07.017Z,14.2
2018-05-09T03:42:07.283Z,14.2
2018-05-09T03:43:07.266Z,14.17
2018-05-09T03:44:06.777Z,14.22
2018-05-09T03:45:07.017Z,14.18
2018-05-09T03:46:07.286Z,14.18
2018-05-09T03:47:07.268Z,14.11
2018-05-09T03:48:07.017Z,14.18
2018-05-09T03:49:06.742Z,14.07
2018-05-09T03:50:06.751Z,14.04
2018-05-09T03:51:07.025Z,14.1
2018-05-09T03:52:07.006Z,14.14
2018-05-09T03:53:07.017Z,14.1
2018-05-09T03:54:06.997Z,14.04
2018-05-09T03:55:06.744Z,14.12
2018-05-09T03:56:07.255Z,14.1
2018-05-09T03:57:07.260Z,14
2018-05-09T03:58:07.001Z,14.14
2018-05-09T03:59:07.262Z,14.1
2018-05-09T04:00:06.992Z,14.05
2018-05-09T04:01:06.736Z,14.08
2018-05-09T04:02:06.994Z,14.14
2018-05-09T04:03:06.977Z,14.08
2018-05-09T04:04:06.723Z,14.12
2018-05-09T04:05:07.240Z,14.07
2018-05-09T04:06:06.978Z,14.25
2018-05-09T04:07:07.230Z,14.25
2018-05-09T04:08:06.737Z,14.25
2018-05-09T04:09:06.986Z,14.35
2018-05-09T04:10:07.224Z,14.33
2018-05-09T04:11:07.365Z,14.35
2018-05-09T04:12:06.965Z,14.41
2018-05-09T04:13:06.755Z,14.41
2018-05-09T04:14:07.011Z,14.53
2018-05-09T04:15:06.738Z,14.54
2018-05-09T04:16:07.241Z,14.51
2018-05-09T04:17:07.233Z,14.6
2018-05-09T04:18:07.216Z,14.59
2018-05-09T04:19:06.737Z,14.6
2018-05-09T04:20:06.967Z,14.59
2018-05-09T04:21:06.967Z,14.69
2018-05-09T04:22:06.964Z,14.77
2018-05-09T04:23:06.719Z,15.04
2018-05-09T04:24:06.966Z,15.11
2018-05-09T04:25:07.223Z,15.33
2018-05-09T04:26:06.953Z,15.62
2018-05-09T04:27:06.694Z,15.72
2018-05-09T04:28:06.806Z,16.1
2018-05-09T04:29:06.699Z,16.28
2018-05-09T04:30:07.250Z,16.51
2018-05-09T04:31:06.713Z,16.75
2018-05-09T04:32:07.219Z,16.94
2018-05-09T04:33:06.704Z,17.2
2018-05-09T04:34:06.696Z,17.46
2018-05-09T04:35:07.217Z,17.68
2018-05-09T04:36:07.019Z,17.92
2018-05-09T04:37:06.952Z,18.08
2018-05-09T04:38:06.950Z,18.26
2018-05-09T04:39:07.216Z,18.43
2018-05-09T04:40:07.226Z,18.59
2018-05-09T04:41:06.718Z,18.71
2018-05-09T04:42:07.060Z,18.77
2018-05-09T04:43:07.275Z,18.77
2018-05-09T04:44:07.223Z,18.88
2018-05-09T04:45:06.711Z,18.93
2018-05-09T04:46:07.242Z,19.12
2018-05-09T04:47:07.028Z,19.33
2018-05-09T04:48:06.976Z,19.58
2018-05-09T04:49:07.330Z,19.79
2018-05-09T04:50:07.250Z,20.06
2018-05-09T04:51:06.819Z,20.18
2018-05-09T04:52:07.269Z,20.32
2018-05-09T04:53:07.235Z,20.47
2018-05-09T04:54:06.734Z,20.63
2018-05-09T04:55:06.737Z,20.81
2018-05-09T04:56:06.740Z,20.97
2018-05-09T04:57:06.997Z,20.92
2018-05-09T04:58:07.262Z,21.02
2018-05-09T04:59:07.023Z,20.9
2018-05-09T05:00:06.753Z,20.88
2018-05-09T05:01:06.764Z,20.85
2018-05-09T05:02:07.023Z,20.93
2018-05-09T05:03:06.771Z,20.99
2018-05-09T05:04:06.772Z,20.99
2018-05-09T05:05:07.301Z,20.84
2018-05-09T05:06:07.297Z,20.84
2018-05-09T05:07:07.469Z,20.9
2018-05-09T05:08:07.041Z,21.06
2018-05-09T05:09:06.802Z,21.24
2018-05-09T05:10:07.049Z,21.39
2018-05-09T05:11:07.079Z,21.5
2018-05-09T05:12:07.073Z,21.55
2018-05-09T05:13:07.318Z,21.58
2018-05-09T05:14:07.065Z,21.88
2018-05-09T05:15:07.067Z,21.82
2018-05-09T05:16:07.336Z,21.73
2018-05-09T05:17:06.823Z,21.61
2018-05-09T05:18:07.099Z,21.6
2018-05-09T05:19:06.851Z,21.43
2018-05-09T05:20:07.372Z,21.25
2018-05-09T05:21:07.112Z,21.02
2018-05-09T05:22:06.857Z,20.9
2018-05-09T05:23:06.859Z,20.9
2018-05-09T05:24:07.111Z,21.02
2018-05-09T05:25:06.873Z,21.07
2018-05-09T05:26:06.867Z,21.24
2018-05-09T05:27:07.605Z,21.54
2018-05-09T05:28:07.134Z,21.92
2018-05-09T05:29:07.177Z,22.26
2018-05-09T05:30:07.408Z,22.44
2018-05-09T05:31:07.412Z,22.63
2018-05-09T05:32:07.166Z,22.66
2018-05-09T05:33:07.155Z,22.62
2018-05-09T05:34:07.442Z,22.45
2018-05-09T05:35:07.428Z,22.15
2018-05-09T05:36:07.453Z,21.89
2018-05-09T05:37:07.189Z,21.62
2018-05-09T05:38:07.186Z,21.43
2018-05-09T05:39:07.188Z,21.12
2018-05-09T05:40:07.451Z,20.74
2018-05-09T05:41:07.497Z,20.28
2018-05-09T05:42:06.956Z,19.96
2018-05-09T05:43:07.206Z,19.49
2018-05-09T05:44:07.233Z,19.19
2018-05-09T05:45:07.864Z,18.83
2018-05-09T05:46:06.965Z,18.56
2018-05-09T05:47:07.236Z,18.25
2018-05-09T05:48:07.496Z,18.13
2018-05-09T05:49:07.509Z,18.03
2018-05-09T05:50:07.246Z,17.97
2018-05-09T05:51:08.306Z,17.89
2018-05-09T05:52:07.249Z,17.9
2018-05-09T05:53:07.009Z,18.05
2018-05-09T05:54:07.517Z,18.04
2018-05-09T05:55:07.252Z,18.03
2018-05-09T05:56:07.720Z,18.08
2018-05-09T05:57:07.271Z,18.04
2018-05-09T05:58:07.290Z,18.11
2018-05-09T05:59:07.525Z,18.7
2018-05-09T06:00:07.542Z,19.24
2018-05-09T06:01:07.272Z,19.86
2018-05-09T06:02:07.272Z,20.48
2018-05-09T06:03:07.036Z,20.99
2018-05-09T06:04:07.554Z,21.61
2018-05-09T06:05:07.297Z,22.17
2018-05-09T06:06:07.564Z,22.78
2018-05-09T06:07:07.292Z,23.18
2018-05-09T06:08:07.066Z,23.54
2018-05-09T06:09:07.326Z,23.77
2018-05-09T06:10:07.575Z,24.26
2018-05-09T06:11:08.373Z,24.84
2018-05-09T06:12:07.315Z,25.13
2018-05-09T06:13:07.070Z,25.65
2018-05-09T06:23:26.337Z,26.26
2018-05-09T06:24:25.823Z,25.81
2018-05-09T06:25:26.078Z,25.77
2018-05-09T06:26:26.085Z,25.93
2018-05-09T06:27:26.345Z,26.15
2018-05-09T06:28:26.093Z,26.47
2018-05-09T06:29:26.367Z,26.52
2018-05-09T06:30:26.100Z,26.47
2018-05-09T06:31:26.372Z,26.73
2018-05-09T06:32:26.121Z,26.84
2018-05-09T06:33:26.122Z,27.07
2018-05-09T06:34:26.397Z,27.11
2018-05-09T06:35:26.393Z,27.52
2018-05-09T06:36:26.160Z,27.74
2018-05-09T06:37:26.153Z,27.4
2018-05-09T06:38:26.171Z,26.99
2018-05-09T06:39:26.440Z,26.99
2018-05-09T06:40:26.443Z,27.12
2018-05-09T06:41:25.929Z,27.21
2018-05-09T06:42:26.203Z,27.27
2018-05-09T06:43:27.316Z,27.08
2018-05-09T06:44:26.225Z,26.99
2018-05-09T06:45:26.213Z,27.07
2018-05-09T06:46:26.239Z,27.07
2018-05-09T06:47:26.249Z,27.08
2018-05-09T06:48:26.240Z,26.99
2018-05-09T06:49:26.242Z,26.92
2018-05-09T06:50:26.262Z,26.96
2018-05-09T06:51:26.265Z,27.15
2018-05-09T06:52:26.528Z,27.3
2018-05-09T06:53:26.286Z,27.33
2018-05-09T06:54:26.275Z,27.15
2018-05-09T06:55:26.284Z,27.21
2018-05-09T06:56:26.541Z,27.29
2018-05-09T06:57:26.298Z,27.37
2018-05-09T06:58:26.309Z,27.55
2018-05-09T06:59:26.332Z,27.86
2018-05-09T07:00:26.076Z,27.8
2018-05-09T07:01:26.594Z,27.77
2018-05-09T07:02:26.083Z,27.78
2018-05-09T07:03:26.154Z,27.68
2018-05-09T07:04:26.346Z,27.82
2018-05-09T07:05:26.616Z,28.19
2018-05-09T07:06:27.086Z,28.47
2018-05-09T07:07:26.635Z,28.12
2018-05-09T07:08:26.651Z,27.75
2018-05-09T07:09:26.149Z,27.9
2018-05-09T07:10:26.399Z,28.17
2018-05-09T07:11:26.398Z,28.22
2018-05-09T07:12:26.675Z,27.93
2018-05-09T07:13:26.685Z,27.68
2018-05-09T07:14:26.186Z,27.89
2018-05-09T07:15:26.432Z,28.12
2018-05-09T07:16:26.206Z,28.25
2018-05-09T07:17:26.452Z,28.27
2018-05-09T07:18:26.707Z,28.2
2018-05-09T07:19:26.228Z,28.08
2018-05-09T07:20:26.723Z,27.85
2018-05-09T07:21:26.736Z,27.55
2018-05-09T07:22:26.487Z,27.4
2018-05-09T07:23:26.755Z,27.21
2018-05-09T07:24:26.504Z,27.14
2018-05-09T07:25:26.515Z,27.03
2018-05-09T07:26:26.774Z,27.22
2018-05-09T07:27:26.536Z,27.49
2018-05-09T07:28:26.787Z,27.32
2018-05-09T07:29:26.545Z,27.36
2018-05-09T07:30:26.810Z,27.32
2018-05-09T07:31:26.812Z,27.37
2018-05-09T07:32:26.582Z,27.15
2018-05-09T07:33:26.847Z,27.03
2018-05-09T07:34:26.588Z,27.12
2018-05-09T07:35:26.665Z,27.22
2018-05-09T07:36:26.602Z,27.39
2018-05-09T07:37:26.608Z,27.39
2018-05-09T07:38:26.883Z,27.48
2018-05-09T07:39:26.869Z,27.58
2018-05-09T07:40:26.878Z,27.44
2018-05-09T07:41:26.889Z,27.51
2018-05-09T07:42:26.661Z,27.55
2018-05-09T07:43:26.659Z,27.64
2018-05-09T07:44:26.925Z,27.59
2018-05-09T07:45:26.662Z,27.6
2018-05-09T07:46:26.664Z,27.68
2018-05-09T07:47:26.697Z,27.64
2018-05-09T07:48:26.682Z,27.32
2018-05-09T07:49:26.966Z,26.9
2018-05-09T07:50:26.983Z,26.84
2018-05-09T07:51:26.973Z,26.78
2018-05-09T07:52:26.986Z,26.96
2018-05-09T07:53:26.714Z,27.15
2018-05-09T07:54:26.992Z,27.36
2018-05-09T07:55:27.015Z,27.51
2018-05-09T07:56:27.010Z,27.87
2018-05-09T07:57:26.760Z,28
2018-05-09T07:58:26.756Z,28.27
2018-05-09T07:59:26.782Z,28.72
2018-05-09T08:00:26.792Z,29.07
2018-05-09T08:01:26.787Z,29.16
2018-05-09T08:02:27.043Z,29.17
2018-05-09T08:03:26.809Z,29.26
2018-05-09T08:04:26.802Z,29.44
2018-05-09T08:05:26.805Z,29.69
2018-05-09T08:06:26.820Z,29.73
2018-05-09T08:07:26.818Z,29.91
2018-05-09T08:08:26.859Z,29.98
2018-05-09T08:09:26.843Z,30.16
2018-05-09T08:10:26.605Z,30.19
2018-05-09T08:11:27.109Z,30.34
2018-05-09T08:12:27.123Z,30.51
2018-05-09T08:13:27.137Z,30.77
2018-05-09T08:14:26.888Z,30.97
2018-05-09T08:15:27.150Z,30.96
2018-05-09T08:16:27.156Z,31.12
2018-05-09T08:17:27.171Z,31.07
2018-05-09T08:18:26.926Z,31.09
2018-05-09T08:19:27.191Z,31.06
2018-05-09T08:20:27.187Z,31.14
2018-05-09T08:21:27.198Z,31.15
2018-05-09T08:22:26.950Z,31.09
2018-05-09T08:23:27.235Z,31.28
2018-05-09T08:24:26.977Z,31.54
2018-05-09T08:25:26.976Z,31.51
2018-05-09T08:26:26.984Z,31.12
2018-05-09T08:27:27.247Z,31.07
2018-05-09T08:28:27.004Z,31.02
2018-05-09T08:29:27.010Z,31.18
2018-05-09T08:30:27.144Z,31.06
2018-05-09T08:31:27.281Z,30.75
2018-05-09T08:32:27.302Z,30.63
2018-05-09T08:33:27.305Z,30.5
2018-05-09T08:34:26.790Z,30.28
2018-05-09T08:35:27.324Z,29.73
2018-05-09T08:36:27.320Z,29.32
2018-05-09T08:37:26.814Z,28.98
2018-05-09T08:38:27.339Z,29.16
2018-05-09T08:39:27.359Z,29.45
2018-05-09T08:40:27.385Z,29.54
2018-05-09T08:41:27.367Z,29.22
2018-05-09T08:42:27.380Z,29.08
2018-05-09T08:43:27.775Z,28.78
2018-05-09T08:44:27.389Z,27.93
2018-05-09T08:45:27.412Z,26.84
2018-05-09T08:46:27.413Z,26.16
2018-05-09T08:47:27.149Z,25.36
2018-05-09T08:48:27.442Z,24.76
2018-05-09T08:49:27.861Z,24.26
2018-05-09T08:50:27.459Z,24.02
2018-05-09T08:51:27.451Z,23.66
2018-05-09T08:52:27.449Z,23.47
2018-05-09T08:53:27.475Z,23.44
2018-05-09T08:54:27.275Z,23.44
2018-05-09T08:55:27.404Z,23.51
2018-05-09T08:56:27.229Z,23.43
2018-05-09T08:57:26.976Z,23.55
2018-05-09T08:58:27.243Z,23.68
2018-05-09T08:59:27.245Z,23.87
2018-05-09T09:00:27.515Z,24.01
2018-05-09T09:01:27.266Z,24.18
2018-05-09T09:02:27.265Z,24.38
2018-05-09T09:03:27.527Z,24.32
2018-05-09T09:04:27.508Z,24.32
2018-05-09T09:05:27.278Z,24.33
2018-05-09T09:06:27.754Z,24.1
2018-05-09T09:07:27.544Z,23.99
2018-05-09T09:08:27.309Z,24.02
2018-05-09T09:09:27.572Z,24.11
2018-05-09T09:10:27.310Z,24.29
2018-05-09T09:11:27.314Z,24.43
2018-05-09T09:12:27.322Z,24.45
2018-05-09T09:13:27.334Z,24.3
2018-05-09T09:14:27.603Z,24.33
2018-05-09T09:15:27.875Z,24.32
2018-05-09T09:16:27.332Z,24.33
2018-05-09T09:17:27.594Z,24.3
2018-05-09T09:18:27.088Z,24.24
2018-05-09T09:19:27.678Z,24.24
2018-05-09T09:20:27.374Z,24.33
2018-05-09T09:21:27.699Z,24.16
2018-05-09T09:22:27.975Z,24.2
2018-05-09T09:23:28.149Z,24.29
2018-05-09T09:24:28.032Z,24.43
2018-05-09T09:25:27.656Z,24.61
2018-05-09T09:26:27.381Z,24.61
2018-05-09T09:27:27.393Z,24.65
2018-05-09T09:28:27.407Z,24.86
2018-05-09T09:29:27.398Z,24.78
2018-05-09T09:30:27.679Z,24.85
2018-05-09T09:31:27.660Z,24.8
2018-05-09T09:32:27.415Z,24.58
2018-05-09T09:33:27.418Z,24.54
2018-05-09T09:34:27.742Z,24.48
2018-05-09T09:35:27.705Z,24.48
2018-05-09T09:36:27.694Z,24.5
2018-05-09T09:37:27.703Z,24.57
2018-05-09T09:38:27.729Z,24.65
2018-05-09T09:39:27.715Z,24.7
2018-05-09T09:40:27.454Z,24.81
2018-05-09T09:41:27.543Z,25.01
2018-05-09T09:42:27.479Z,25.21
2018-05-09T09:43:27.721Z,25.21
2018-05-09T09:44:27.478Z,25.11
2018-05-09T09:45:27.744Z,24.89
2018-05-09T09:46:27.740Z,24.53
2018-05-09T09:47:27.742Z,24.33
2018-05-09T09:48:27.768Z,24.3
2018-05-09T09:49:27.773Z,24.02
2018-05-09T09:50:27.505Z,23.93
2018-05-09T09:51:27.508Z,23.84
2018-05-09T09:52:27.770Z,23.95
2018-05-09T09:53:27.516Z,23.83
2018-05-09T09:54:27.533Z,23.81
2018-05-09T09:55:27.537Z,23.77
2018-05-09T09:56:27.792Z,23.77
2018-05-09T09:57:27.553Z,23.78
2018-05-09T09:58:27.803Z,23.8
2018-05-09T09:59:27.802Z,23.77
2018-05-09T10:00:27.807Z,23.88
2018-05-09T10:01:27.883Z,23.99
2018-05-09T10:02:27.556Z,24.2
2018-05-09T10:03:27.814Z,24.23
2018-05-09T10:04:28.381Z,24.33
2018-05-09T10:05:27.569Z,24.51
2018-05-09T10:06:27.839Z,24.68
2018-05-09T10:07:27.863Z,24.88
2018-05-09T10:08:27.851Z,25.18
2018-05-09T10:09:27.920Z,25.33
2018-05-09T10:10:27.846Z,25.43
2018-05-09T10:11:27.599Z,25.48
2018-05-09T10:12:27.605Z,25.28
2018-05-09T10:13:27.606Z,25.11
2018-05-09T10:14:27.874Z,24.95
2018-05-09T10:15:27.878Z,24.78
2018-05-09T10:16:27.364Z,24.55
2018-05-09T10:17:27.625Z,24.39
2018-05-09T10:18:27.649Z,24.42
2018-05-09T10:19:27.892Z,24.45
2018-05-09T10:20:27.668Z,24.33
2018-05-09T10:21:27.661Z,24.02
2018-05-09T10:22:27.920Z,24.03
2018-05-09T10:52:52.952Z,23.61
2018-05-09T10:53:53.163Z,23.58
2018-05-09T10:54:52.984Z,23.46
2018-05-09T10:55:53.140Z,23.54
2018-05-09T10:56:53.160Z,23.61
2018-05-09T10:57:53.144Z,23.78
2018-05-09T10:58:53.145Z,23.88
2018-05-09T10:59:52.901Z,24.21
2018-05-09T11:00:53.240Z,24.39
2018-05-09T11:01:53.189Z,24.73
2018-05-09T11:02:52.637Z,24.81
2018-05-09T11:03:53.171Z,24.81
2018-05-09T11:04:53.182Z,24.68
2018-05-09T11:05:52.650Z,24.7
2018-05-09T11:06:53.202Z,24.47
2018-05-09T11:07:53.183Z,24.29
2018-05-09T11:08:52.660Z,24.28
2018-05-09T11:09:53.191Z,24.33
2018-05-09T11:10:53.195Z,24.55
2018-05-09T11:11:53.202Z,24.73
2018-05-09T11:12:53.230Z,24.84
2018-05-09T11:13:53.191Z,24.86
2018-05-09T11:14:52.949Z,24.85
2018-05-09T11:15:53.038Z,25.1
2018-05-09T11:16:52.951Z,25.13
2018-05-09T11:17:52.947Z,25.16
2018-05-09T11:18:53.213Z,25.17
2018-05-09T11:19:52.987Z,25.36
2018-05-09T11:20:53.011Z,25.48
2018-05-09T11:21:53.246Z,25.58
2018-05-09T11:22:53.247Z,25.66
2018-05-09T11:23:52.985Z,25.63
2018-05-09T11:24:53.253Z,25.7
2018-05-09T11:25:53.313Z,25.85
2018-05-09T11:26:53.258Z,25.85
2018-05-09T11:27:53.037Z,25.66
2018-05-09T11:28:53.019Z,25.62
2018-05-09T11:29:53.013Z,25.46
2018-05-09T11:30:53.094Z,25.44
2018-05-09T11:31:53.376Z,25.28
2018-05-09T11:32:53.038Z,25.28
2018-05-09T11:33:53.036Z,25.25
2018-05-09T11:34:53.035Z,25.4
2018-05-09T11:35:53.391Z,25.58
2018-05-09T11:36:53.316Z,25.59
2018-05-09T11:37:53.052Z,25.65
2018-05-09T11:38:53.061Z,25.65
2018-05-09T11:39:53.319Z,25.58
2018-05-09T11:40:53.092Z,25.51
2018-05-09T11:41:53.342Z,25.38
2018-05-09T11:42:53.103Z,25.31
2018-05-09T11:43:53.004Z,25.36
2018-05-09T11:44:53.155Z,25.33
2018-05-09T11:45:53.383Z,25.36
2018-05-09T11:46:53.102Z,25.29
2018-05-09T11:47:53.353Z,25.31
2018-05-09T11:48:53.379Z,25.41
2018-05-09T11:49:52.868Z,25.44
2018-05-09T11:50:53.428Z,25.38
2018-05-09T11:51:53.174Z,25.36
2018-05-09T11:52:53.129Z,25.47
2018-05-09T11:53:53.393Z,25.48
2018-05-09T11:54:53.136Z,25.38
2018-05-09T11:55:53.492Z,25.36
2018-05-09T11:56:53.404Z,25.31
2018-05-09T11:57:53.413Z,25.41
2018-05-09T11:58:53.422Z,25.36
2018-05-09T11:59:53.164Z,25.38
2018-05-09T12:00:53.461Z,25.29
2018-05-09T12:01:53.193Z,25.23
2018-05-09T12:02:53.193Z,25.08
2018-05-09T12:03:53.458Z,25.01
2018-05-09T12:04:53.459Z,24.8
2018-05-09T12:05:53.274Z,24.8
2018-05-09T12:06:53.468Z,24.84
2018-05-09T12:07:53.541Z,24.84
2018-05-09T12:08:53.216Z,24.66
2018-05-09T12:09:53.218Z,24.66
2018-05-09T12:10:53.569Z,24.57
2018-05-09T12:11:53.250Z,24.54
2018-05-09T12:12:53.225Z,24.55
2018-05-09T12:13:53.241Z,24.54
2018-05-09T12:14:53.364Z,24.43
2018-05-09T12:15:53.570Z,24.33
2018-05-09T12:16:53.266Z,24.32
2018-05-09T12:17:53.513Z,24.28
2018-05-09T12:18:53.125Z,24.32
2018-05-09T12:19:53.033Z,24.29
2018-05-09T12:20:53.592Z,24.35
2018-05-09T12:21:53.299Z,24.32
2018-05-09T12:22:53.547Z,24.48
2018-05-09T12:23:53.033Z,24.57
2018-05-09T12:24:53.564Z,24.68
2018-05-09T12:25:53.554Z,24.73
2018-05-09T12:26:53.644Z,24.63
2018-05-09T12:27:53.296Z,24.58
2018-05-09T12:28:53.564Z,24.54
2018-05-09T12:29:53.343Z,24.51
2018-05-09T12:30:53.432Z,24.61
2018-05-09T12:31:53.585Z,24.63
2018-05-09T12:32:53.591Z,24.78
2018-05-09T12:33:53.595Z,24.84
2018-05-09T12:34:53.349Z,24.78
2018-05-09T12:35:53.678Z,24.84
2018-05-09T12:36:53.373Z,24.86
2018-05-09T12:37:53.336Z,24.78
2018-05-09T12:38:53.143Z,24.65
2018-05-09T12:39:53.619Z,24.69
2018-05-09T12:40:53.711Z,24.6
2018-05-09T12:41:53.374Z,24.6
2018-05-09T12:42:54.438Z,24.7
2018-05-09T12:43:53.659Z,24.7
2018-05-09T12:44:53.649Z,24.78
2018-05-09T12:45:53.406Z,24.84
2018-05-09T12:46:53.674Z,24.88
2018-05-09T12:47:53.412Z,24.81
2018-05-09T12:48:53.201Z,24.8
2018-05-09T12:49:53.656Z,24.89
2018-05-09T12:50:53.422Z,24.91
2018-05-09T12:51:53.410Z,24.78
2018-05-09T12:52:53.176Z,24.69
2018-05-09T12:53:53.442Z,24.85
2018-05-09T12:54:53.196Z,24.84
2018-05-09T12:55:53.682Z,24.85
2018-05-09T12:56:53.727Z,24.78
2018-05-09T12:57:53.464Z,24.7
2018-05-09T12:58:53.704Z,24.7
2018-05-09T12:59:53.448Z,24.76
2018-05-09T13:00:53.313Z,24.65
2018-05-09T13:01:53.725Z,24.89
2018-05-09T13:02:53.227Z,24.92
2018-05-09T13:03:53.733Z,24.95
2018-05-09T13:04:53.722Z,25.01
2018-05-09T13:05:53.319Z,25.03
2018-05-09T13:06:53.496Z,24.88
2018-05-09T13:07:53.502Z,24.96
2018-05-09T13:08:53.267Z,25.13
2018-05-09T13:09:53.750Z,25.23
2018-05-09T13:10:53.358Z,25.36
2018-05-09T13:11:53.505Z,25.53
2018-05-09T13:12:53.507Z,25.47
2018-05-09T13:13:53.533Z,25.38
2018-05-09T13:14:53.788Z,25.38
2018-05-09T13:15:53.588Z,25.47
2018-05-09T13:16:53.800Z,25.44
2018-05-09T13:17:53.801Z,25.5
2018-05-09T13:18:53.545Z,25.51
2018-05-09T13:19:53.870Z,25.59
2018-05-09T13:20:53.614Z,25.65
2018-05-09T13:21:53.318Z,25.72
2018-05-09T13:22:53.811Z,25.72
2018-05-09T13:23:53.833Z,25.69
2018-05-09T13:24:53.313Z,25.68
2018-05-09T13:25:53.969Z,25.68
2018-05-09T13:26:53.601Z,25.7
2018-05-09T13:27:53.592Z,25.73
2018-05-09T13:28:53.596Z,25.73
2018-05-09T13:29:53.857Z,25.77
2018-05-09T13:30:53.927Z,25.81
2018-05-09T13:31:53.388Z,25.83
2018-05-09T13:32:53.878Z,25.81
2018-05-09T13:33:53.653Z,25.84